Flight Track Log - Related Links

Times and Time Zones

All times are in EDT time to prevent confusion due to time zone crossing. See the EJA122 flight status page for this flight to view local times or setup timezone preferences in your user account.

Time Position Orientation Groundspeed Altitude Reporting Facility
EDT Latitude Longitude Course Direction KTS MPH feet Rate Location/Type
Sat 12:17:56 PM 39.7167 -86.2667 30° Northeast 169 194 1,900  Level Indianapolis TRACON
Sat 12:19:08 PM 39.7833 -86.2167 30° Northeast 263 303 5,600 3,068 Climbing Indianapolis TRACON
Sat 12:20:09 PM 39.8500 -86.2167 360° North 280 322 8,700 2,818 Climbing Indianapolis TRACON
Sat 12:21:20 PM 39.9275 -86.2847 326° Northwest 263 303 11,800 1,955 Climbing Indianapolis Center
Sat 12:22:21 PM 39.9897 -86.3478 322° Northwest 283 326 13,000 836 Climbing Indianapolis Center
Sat 12:23:22 PM 40.0631 -86.4236 322° Northwest 334 384 13,500 1,161 Climbing Indianapolis Center
Sat 12:24:25 PM 40.1300 -86.5078 316° Northwest 344 396 15,400 1,210 Climbing Chicago Center
Sat 12:25:26 PM 40.1572 -86.6247 287° West 340 391 16,000 293 Climbing Chicago Center
Sat 12:26:28 PM 40.1814 -86.7544 284° West 364 419 16,000  Level Chicago Center
Sat 12:27:29 PM 40.2094 -86.9103 283° West 369 425 16,000  Level Chicago Center
Sat 12:28:31 PM 40.2317 -87.0433 282° West 374 430 16,000  Level Chicago Center
Sat 12:29:32 PM 40.2547 -87.1747 283° West 374 430 16,000  Level Chicago Center
Sat 12:30:34 PM 40.2778 -87.3025 283° West 364 419 16,000  Level Chicago Center
Sat 12:31:35 PM 40.2994 -87.4311 282° West 362 417 16,000  Level Chicago Center
Sat 12:32:37 PM 40.3236 -87.5725 283° West 365 420 16,000  Level Chicago Center
Sat 12:33:38 PM 40.3467 -87.7042 283° West 370 426 16,000  Level Chicago Center
Sat 12:34:40 PM 40.3700 -87.8367 283° West 374 430 16,000  Level Chicago Center
Sat 12:35:41 PM 40.3922 -87.9697 282° West 375 432 16,000  Level Chicago Center
Sat 12:36:43 PM 40.4136 -88.1056 282° West 379 436 16,000 -97 Level Chicago Center
Sat 12:37:45 PM 40.4372 -88.2403 283° West 379 436 15,800 -732 Descending Chicago Center
Sat 12:38:46 PM 40.4614 -88.3903 282° West 351 404 14,500 -1,122 Descending Chicago Center
Sat 12:39:48 PM 40.4806 -88.5075 282° West 332 382 13,500 -1,024 Descending Chicago Center
Sat 12:40:49 PM 40.4989 -88.6192 282° West 316 364 12,400 -1,073 Descending Chicago Center
Sat 12:41:51 PM 40.5161 -88.7278 282° West 307 353 11,300 -1,268 Descending Chicago Center
Sat 12:42:52 PM 40.5306 -88.8206 282° West 271 312 9,800 -1,951 Descending Chicago Center
Sat 12:43:54 PM 40.5242 -88.9189 265° West 254 292 7,300 -1,805 Descending Chicago Center
Sat 12:44:55 PM 40.5175 -89.0117 265° West 254 292 6,100 -585 Descending Chicago Center
Sat 12:45:57 PM 40.5111 -89.1064 265° West 258 297 6,100  Level Chicago Center
Sat 12:46:58 PM 40.5022 -89.2019 263° West 262 302 6,100  Level Chicago Center
Sat 12:48:00 PM 40.4942 -89.2964 264° West 260 299 6,100 -242 Level Chicago Center
Sat 12:49:02 PM 40.4864 -89.3928 264° West 263 303 5,600 -732 Descending Chicago Center
Sat 12:50:03 PM 40.4781 -89.4892 264° West 265 305 4,600 -732 Descending Chicago Center
Sat 12:51:05 PM 40.5014 -89.5781 289° West 221 254 4,100 -244 Descending Chicago Center
Sat 12:52:06 PM 40.5278 -89.6417 299° West 205 236 4,100 -439 Level Chicago Center
Sat 12:53:08 PM 40.5444 -89.6967 292° West 170 196 3,200 -774 Descending Chicago Center
Sat 12:54:10 PM 40.5658 -89.7483 299° West 167 192 2,500 -390 Descending Chicago Center
Sat 12:55:11 PM 40.6086 -89.7439 North 164 189 2,400 -634 Descending Chicago Center
Sat 12:56:13 PM 40.6383 -89.7108 40° Northeast 145 167 1,200 -829 Descending Chicago Center
Sat 12:57:14 PM 40.6633 -89.6842 39° Northeast 122 140 700 -244 Descending Chicago Center
Sat 12:58:16 PM 40.6581 -89.6703 117° Southeast 108 124 700  Level Chicago Center

Login

Don't have an account? Register now (free) for customized features, flight alerts, and more!